Time;durP1;ratioP1;P1;durP2;ratioP2;P2;SDS_P1;SDS_P2;PMS_P1;PMS_P2;Temp;Humidity;BMP_temperature;BMP_pressure;BME280_temperature;BME280_humidity;BME280_pressure;Samples;Min_cycle;Max_cycle;Signal;HPM_P1;HPM_P2
2022/02/25 00:00:38;;;;;;;10.40;2.10;;;;;;;4.06;65.73;101655.59;5045334;28;20027;-69
2022/02/25 00:03:04;;;;;;;12.52;1.85;;;;;;;4.04;65.58;101646.00;5045635;28;20160;-70
2022/02/25 00:05:30;;;;;;;13.35;2.00;;;;;;;4.08;65.31;101672.13;5046352;28;20044;-73
2022/02/25 00:07:55;;;;;;;10.68;2.00;;;;;;;4.09;65.42;101648.66;5047170;28;20056;-72
2022/02/25 00:10:21;;;;;;;11.43;1.70;;;;;;;4.09;65.14;101656.47;5047564;28;20524;-70
2022/02/25 00:12:47;;;;;;;13.07;2.58;;;;;;;4.10;65.58;101665.19;5047251;28;20047;-72
2022/02/25 00:15:12;;;;;;;13.45;2.00;;;;;;;4.07;65.65;101666.06;5047355;28;20216;-71
2022/02/25 00:17:38;;;;;;;12.65;1.65;;;;;;;4.06;65.71;101668.66;5048642;28;20410;-70
2022/02/25 00:20:04;;;;;;;12.40;2.00;;;;;;;4.08;65.31;101659.97;5046168;28;20791;-69
2022/02/25 00:22:29;;;;;;;19.48;2.38;;;;;;;4.11;65.43;101653.88;5045689;28;20476;-70
2022/02/25 00:24:55;;;;;;;12.93;1.67;;;;;;;4.12;65.63;101666.94;5046079;28;20158;-69
2022/02/25 00:27:20;;;;;;;10.88;1.77;;;;;;;4.11;66.11;101669.53;5045955;28;20480;-70
2022/02/25 00:29:45;;;;;;;12.48;2.30;;;;;;;4.10;66.30;101666.06;5046256;28;20033;-70
2022/02/25 00:32:11;;;;;;;12.13;1.48;;;;;;;4.09;66.66;101676.50;5047419;28;20104;-68
2022/02/25 00:34:36;;;;;;;19.92;4.35;;;;;;;4.10;66.66;101683.44;5045771;28;20024;-71
2022/02/25 00:37:03;;;;;;;20.17;3.70;;;;;;;4.14;66.28;101674.78;5045459;28;20380;-70
2022/02/25 00:39:28;;;;;;;15.40;2.33;;;;;;;4.16;66.62;101667.84;5046170;28;20501;-71
2022/02/25 00:41:53;;;;;;;13.93;1.75;;;;;;;4.05;67.02;101667.75;5045487;28;20029;-72
2022/02/25 00:44:18;;;;;;;15.80;2.22;;;;;;;4.09;67.08;101677.34;5045700;28;20324;-71
2022/02/25 00:46:44;;;;;;;20.38;2.72;;;;;;;4.08;67.45;101675.59;5046755;28;20117;-69
2022/02/25 00:49:09;;;;;;;10.68;1.85;;;;;;;4.08;67.59;101670.41;5052247;28;20026;-70
2022/02/25 00:51:35;;;;;;;13.57;2.30;;;;;;;4.09;67.20;101666.06;5065817;28;20086;-70
2022/02/25 00:54:00;;;;;;;9.57;1.90;;;;;;;4.19;67.21;101680.91;5065984;28;20114;-72
2022/02/25 00:56:25;;;;;;;25.27;2.80;;;;;;;4.15;67.35;101690.44;5065730;28;20127;-69
2022/02/25 00:58:53;;;;;;;12.07;2.28;;;;;;;4.13;67.34;101678.25;5065607;28;20390;-69
2022/02/25 01:01:19;;;;;;;9.80;2.17;;;;;;;4.09;67.02;101677.34;5066324;28;20467;-70
2022/02/25 01:03:44;;;;;;;22.95;2.33;;;;;;;4.12;66.74;101686.94;5066262;28;20070;-69
2022/02/25 01:06:10;;;;;;;14.52;2.35;;;;;;;4.17;66.92;101675.69;5049455;28;20033;-72
2022/02/25 01:08:36;;;;;;;9.95;2.05;;;;;;;4.10;67.40;101671.28;5045655;28;20503;-70
2022/02/25 01:11:01;;;;;;;16.48;2.47;;;;;;;4.04;67.82;101674.69;5053363;28;20021;-70
2022/02/25 01:13:26;;;;;;;14.40;2.65;;;;;;;4.00;67.65;101678.16;5066644;28;20024;-69
2022/02/25 01:15:52;;;;;;;11.20;1.88;;;;;;;3.96;67.92;101678.13;5063764;28;20021;-70
2022/02/25 01:18:17;;;;;;;21.73;2.33;;;;;;;3.98;67.86;101682.50;5066192;28;20039;-70
2022/02/25 01:20:42;;;;;;;18.48;1.90;;;;;;;3.99;68.02;101675.53;5066306;28;20032;-70
2022/02/25 01:23:09;;;;;;;18.42;2.22;;;;;;;3.97;68.23;101672.91;5066173;28;20030;-69
2022/02/25 01:25:35;;;;;;;13.18;2.72;;;;;;;3.89;68.49;101682.44;5066591;28;20025;-71
2022/02/25 01:28:00;;;;;;;18.30;2.00;;;;;;;3.91;68.67;101678.09;5046577;28;20083;-69
2022/02/25 01:30:25;;;;;;;21.02;2.92;;;;;;;3.89;68.79;101672.00;5044094;28;20033;-69
2022/02/25 01:32:51;;;;;;;11.65;2.33;;;;;;;3.91;68.71;101680.69;5045500;28;20064;-68
2022/02/25 01:35:16;;;;;;;13.55;2.00;;;;;;;3.96;68.27;101671.19;5046112;28;20098;-70
2022/02/25 01:37:44;;;;;;;15.00;2.40;;;;;;;3.93;68.49;101684.19;5046656;28;20021;-72
2022/02/25 01:40:09;;;;;;;16.63;1.83;;;;;;;3.97;68.25;101687.72;5062226;28;20208;-71
2022/02/25 01:42:49;;;;;;;12.07;2.33;;;;;;;3.96;68.56;101685.94;5066253;28;20048;-71
2022/02/25 01:45:14;;;;;;;;;;;;;;;3.97;68.65;101687.72;5064739;28;20043;-68
2022/02/25 01:47:40;;;;;;;8.00;2.03;;;;;;;3.95;68.42;101690.31;5066596;28;19960;-70
2022/02/25 01:50:05;;;;;;;9.52;1.70;;;;;;;3.97;68.36;101698.16;5068373;28;20021;-71
2022/02/25 01:52:31;;;;;;;8.65;2.15;;;;;;;3.95;68.40;101692.03;5070176;28;20483;-70
2022/02/25 01:54:56;;;;;;;10.65;1.90;;;;;;;3.99;68.18;101689.47;5065546;28;20033;-71
2022/02/25 01:57:22;;;;;;;13.50;2.38;;;;;;;4.01;68.27;101686.88;5068589;28;20519;-72
2022/02/25 01:59:47;;;;;;;13.27;2.50;;;;;;;3.99;68.28;101685.97;5068003;28;20023;-70
2022/02/25 02:02:13;;;;;;;17.30;2.25;;;;;;;4.02;68.15;101683.38;5068681;28;20410;-70
2022/02/25 02:04:39;;;;;;;23.67;3.28;;;;;;;3.99;68.43;101676.44;5057176;28;20045;-70
2022/02/25 02:07:05;;;;;;;16.20;2.92;;;;;;;3.99;68.55;101681.63;5049151;28;20495;-67
2022/02/25 02:09:30;;;;;;;11.82;2.45;;;;;;;3.93;68.46;101681.59;5224228;22;20628;-70
2022/02/25 02:11:56;;;;;;;15.30;2.22;;;;;;;3.93;68.59;101684.19;5049891;28;20511;-68
2022/02/25 02:14:23;;;;;;;15.00;2.35;;;;;;;3.97;68.72;101682.50;5055960;28;20537;-69
2022/02/25 02:16:50;;;;;;;10.05;1.65;;;;;;;4.00;68.70;101685.97;5069608;28;20142;-68
2022/02/25 02:19:16;;;;;;;27.48;3.03;;;;;;;3.96;68.73;101675.50;5068552;28;20020;-67
2022/02/25 02:21:44;;;;;;;11.50;2.38;;;;;;;3.91;68.85;101684.19;5068768;28;20078;-67
2022/02/25 02:24:10;;;;;;;18.88;3.38;;;;;;;3.89;69.28;101685.03;5069559;28;20478;-68
2022/02/25 02:26:37;;;;;;;11.52;2.40;;;;;;;3.90;69.45;101694.59;5069469;28;20120;-68
2022/02/25 02:29:03;;;;;;;15.23;3.08;;;;;;;3.86;69.21;101691.13;5067574;28;20008;-68
2022/02/25 02:31:29;;;;;;;13.20;3.13;;;;;;;3.78;69.73;101683.22;5052563;28;20032;-68
2022/02/25 02:33:54;;;;;;;15.55;2.03;;;;;;;3.81;69.61;101689.31;5048353;28;20021;-69
2022/02/25 02:36:19;;;;;;;13.27;2.15;;;;;;;3.81;70.01;101681.47;5047190;28;20017;-68
2022/02/25 02:38:45;;;;;;;19.45;3.35;;;;;;;3.82;69.69;101668.47;5041928;28;20025;-67
2022/02/25 02:41:11;;;;;;;20.85;3.13;;;;;;;3.86;69.59;101669.38;5039154;28;20173;-70
2022/02/25 02:43:36;;;;;;;15.57;2.72;;;;;;;3.93;69.50;101665.94;5064200;28;20037;-68
2022/02/25 02:46:03;;;;;;;15.43;2.55;;;;;;;4.01;69.44;101666.84;5032950;28;20017;-70
2022/02/25 02:48:29;;;;;;;11.45;2.10;;;;;;;4.07;69.22;101659.94;5036153;28;20025;-68
2022/02/25 02:50:54;;;;;;;6.75;1.60;;;;;;;4.01;69.74;101659.03;5038322;28;20024;-68
2022/02/25 02:53:20;;;;;;;16.85;2.67;;;;;;;4.03;70.22;101672.09;5047780;28;20055;-69
2022/02/25 02:55:45;;;;;;;18.33;2.47;;;;;;;4.09;69.98;101661.69;5033330;28;20037;-68
2022/02/25 02:58:11;;;;;;;16.95;3.30;;;;;;;4.10;70.04;101658.25;5049168;28;20033;-66
2022/02/25 03:00:38;;;;;;;10.80;2.20;;;;;;;4.08;70.32;101654.75;5046737;28;20058;-69
2022/02/25 03:03:04;;;;;;;16.58;2.30;;;;;;;4.04;70.67;101653.84;5048491;28;20383;-68
2022/02/25 03:05:29;;;;;;;17.20;2.20;;;;;;;4.00;70.44;101649.47;5040452;28;20021;-68
2022/02/25 03:07:54;;;;;;;18.70;3.45;;;;;;;4.04;70.64;101660.81;5042353;28;20026;-68
2022/02/25 03:10:20;;;;;;;23.73;3.40;;;;;;;4.07;70.29;101662.56;5042174;28;20036;-68
2022/02/25 03:12:46;;;;;;;19.20;3.17;;;;;;;4.08;70.22;101653.84;5031119;28;20033;-69
2022/02/25 03:15:12;;;;;;;16.10;2.50;;;;;;;4.09;70.24;101671.28;5026956;28;20037;-67
2022/02/25 03:17:40;;;;;;;18.63;2.55;;;;;;;4.06;70.36;101655.59;5031225;28;20037;-67
2022/02/25 03:20:06;;;;;;;18.70;2.38;;;;;;;4.03;70.61;101646.88;5036599;28;20112;-67
2022/02/25 03:22:32;;;;;;;19.58;2.50;;;;;;;4.04;70.44;101663.41;5028632;28;20041;-67
2022/02/25 03:24:58;;;;;;;17.42;3.70;;;;;;;4.03;70.02;101652.09;5028148;28;20029;-68
2022/02/25 03:27:23;;;;;;;13.90;2.38;;;;;;;4.03;70.55;101652.09;5054970;28;20124;-68
2022/02/25 03:29:49;;;;;;;33.50;3.58;;;;;;;4.04;70.26;101659.06;5036168;28;20022;-67
2022/02/25 03:32:15;;;;;;;21.58;3.13;;;;;;;4.13;69.86;101650.41;5026525;28;20061;-67
2022/02/25 03:34:41;;;;;;;14.32;2.65;;;;;;;4.14;69.96;101659.13;5038311;28;20439;-67
2022/02/25 03:37:06;;;;;;;21.98;3.65;;;;;;;4.17;70.17;101664.34;5047795;28;20021;-66
2022/02/25 03:39:32;;;;;;;10.35;2.30;;;;;;;4.13;70.28;101671.28;5041423;28;20509;-68
2022/02/25 03:41:57;;;;;;;22.60;3.88;;;;;;;4.18;70.45;101671.31;5029032;28;20026;-67
2022/02/25 03:44:22;;;;;;;20.02;2.17;;;;;;;4.22;70.72;101667.00;5025996;28;20029;-68
2022/02/25 03:46:48;;;;;;;22.73;3.03;;;;;;;4.30;70.51;101675.72;5025501;28;20033;-70
2022/02/25 03:49:14;;;;;;;19.17;2.92;;;;;;;4.40;70.11;101661.88;5031137;28;20382;-67
2022/02/25 03:51:39;;;;;;;17.48;3.97;;;;;;;4.51;69.74;101672.38;5039487;28;20025;-66
2022/02/25 03:54:05;;;;;;;14.98;2.22;;;;;;;4.62;69.48;101650.66;5036775;28;20095;-65
2022/02/25 03:56:30;;;;;;;12.00;2.60;;;;;;;4.67;69.12;101662.00;5027026;28;20067;-65
2022/02/25 03:58:55;;;;;;;19.38;2.95;;;;;;;4.72;69.00;101668.09;5030103;28;20094;-67
2022/02/25 04:01:21;;;;;;;18.63;2.40;;;;;;;4.78;68.85;101665.53;5038569;28;20109;-67
2022/02/25 04:03:46;;;;;;;18.30;2.40;;;;;;;4.77;69.20;101671.63;5047232;28;20024;-68
2022/02/25 04:06:11;;;;;;;16.08;2.50;;;;;;;4.72;69.35;101660.28;5046306;28;20025;-68
2022/02/25 04:08:37;;;;;;;15.80;3.25;;;;;;;4.79;69.34;101672.47;5044771;28;20041;-68
2022/02/25 04:11:02;;;;;;;16.77;3.10;;;;;;;4.76;69.39;101671.63;5031426;28;20044;-67
2022/02/25 04:13:27;;;;;;;16.42;2.40;;;;;;;4.83;69.42;101668.16;5034507;28;20024;-66
2022/02/25 04:15:53;;;;;;;24.38;3.60;;;;;;;4.80;69.57;101669.03;5045671;28;20029;-68
2022/02/25 04:18:18;;;;;;;25.40;3.20;;;;;;;4.82;69.81;101671.66;5040561;28;20022;-66
2022/02/25 04:20:43;;;;;;;24.15;3.55;;;;;;;4.89;69.78;101662.06;5038380;28;20264;-67
2022/02/25 04:23:09;;;;;;;19.80;3.28;;;;;;;4.94;69.52;101662.97;5029421;28;20025;-68
2022/02/25 04:25:34;;;;;;;21.08;3.17;;;;;;;4.92;69.65;101662.97;5035824;28;20409;-67
2022/02/25 04:28:01;;;;;;;24.63;3.92;;;;;;;4.93;69.60;101671.66;5063453;28;20025;-68
2022/02/25 04:30:27;;;;;;;18.80;2.60;;;;;;;4.92;69.78;101669.94;5043655;28;20029;-67
2022/02/25 04:32:53;;;;;;;26.42;3.92;;;;;;;4.94;70.11;101676.03;5041362;28;20040;-68
2022/02/25 04:35:20;;;;;;;18.27;3.63;;;;;;;4.95;70.38;101667.31;5025652;28;20021;-69
2022/02/25 04:37:45;;;;;;;18.08;3.22;;;;;;;4.99;70.51;101661.22;5037779;28;20021;-68
2022/02/25 04:40:11;;;;;;;17.48;2.50;;;;;;;4.96;70.77;101661.22;5040515;28;20032;-67
2022/02/25 04:42:37;;;;;;;22.77;3.63;;;;;;;4.95;70.46;101661.22;5044698;28;20025;-70
2022/02/25 04:45:03;;;;;;;25.88;2.70;;;;;;;5.03;70.28;101668.19;5026424;28;20064;-67
2022/02/25 04:47:28;;;;;;;23.92;3.30;;;;;;;5.03;70.40;101657.75;5026175;28;20514;-69
2022/02/25 04:49:53;;;;;;;20.33;2.92;;;;;;;4.98;71.35;101654.28;5026828;28;20025;-71
2022/02/25 04:52:19;;;;;;;22.67;3.60;;;;;;;5.00;71.40;101662.97;5035184;28;20045;-67
2022/02/25 04:54:45;;;;;;;23.25;2.70;;;;;;;4.99;71.99;101661.22;5040066;28;20026;-66
2022/02/25 04:57:10;;;;;;;17.88;2.88;;;;;;;4.86;72.64;101670.78;5041930;28;20032;-68
2022/02/25 04:59:36;;;;;;;15.57;2.83;;;;;;;4.68;73.99;101685.53;5045993;28;20434;-68
2022/02/25 05:02:02;;;;;;;20.58;3.10;;;;;;;4.53;74.82;101694.16;5033074;28;20060;-67
2022/02/25 05:04:27;;;;;;;15.32;2.28;;;;;;;4.41;76.43;101676.69;5035476;28;20406;-68
2022/02/25 05:06:52;;;;;;;16.45;2.97;;;;;;;4.28;77.77;101688.78;5039607;28;20080;-67
2022/02/25 05:09:17;;;;;;;19.67;3.50;;;;;;;4.22;78.34;101680.94;5037928;28;20041;-70
2022/02/25 05:11:43;;;;;;;23.35;3.35;;;;;;;4.20;78.71;101682.66;5059689;28;20074;-70
2022/02/25 05:20:15;;;;;;;25.98;3.13;;;;;;;4.13;79.85;101673.88;5058846;28;20029;-68
2022/02/25 05:22:22;;;;;;;29.85;3.90;;;;;;;4.24;78.94;101684.41;5066865;28;20028;-67
2022/02/25 05:24:47;;;;;;;24.23;3.00;;;;;;;4.21;79.57;101684.38;5069829;28;20020;-67
2022/02/25 05:27:13;;;;;;;29.25;3.40;;;;;;;4.21;79.43;101687.00;5058521;28;20017;-67
2022/02/25 05:29:38;;;;;;;19.23;2.80;;;;;;;4.26;77.77;101706.16;5050941;28;20506;-69
2022/02/25 05:32:04;;;;;;;18.42;2.95;;;;;;;4.36;76.85;101698.41;5058303;28;20033;-68
2022/02/25 05:34:29;;;;;;;19.60;2.85;;;;;;;4.38;76.28;101701.88;5049889;28;20471;-68
2022/02/25 05:36:55;;;;;;;20.45;3.33;;;;;;;4.42;75.48;101707.13;5035710;28;20063;-68
2022/02/25 05:39:20;;;;;;;20.52;2.70;;;;;;;4.48;74.98;101734.16;5037319;28;20097;-69
2022/02/25 05:41:45;;;;;;;17.48;2.70;;;;;;;4.51;74.80;101714.13;5034230;28;20055;-66
2022/02/25 05:44:10;;;;;;;16.83;2.70;;;;;;;4.54;75.17;101724.59;5029421;28;20536;-67
2022/02/25 05:46:36;;;;;;;19.73;3.33;;;;;;;4.47;75.36;101717.59;5029208;28;20032;-67
2022/02/25 05:49:01;;;;;;;19.10;2.70;;;;;;;4.44;75.48;101714.97;5029081;28;20088;-69
2022/02/25 05:51:27;;;;;;;22.65;2.65;;;;;;;4.42;74.99;101716.69;5029437;28;20048;-68
2022/02/25 05:53:53;;;;;;;20.80;2.90;;;;;;;4.51;74.05;101721.09;5029942;28;20119;-67
2022/02/25 05:56:18;;;;;;;27.38;3.05;;;;;;;4.57;74.08;101726.34;5030229;28;20025;-69
2022/02/25 05:58:44;;;;;;;17.08;2.80;;;;;;;4.62;73.62;101729.88;5029232;28;20032;-69
2022/02/25 06:01:09;;;;;;;16.40;2.42;;;;;;;4.70;72.20;101740.34;5030355;28;20021;-68
2022/02/25 06:03:34;;;;;;;11.35;2.15;;;;;;;4.82;71.50;101746.50;5030416;28;20065;-68
2022/02/25 06:06:00;;;;;;;14.32;2.33;;;;;;;4.83;71.88;101754.34;5029187;28;20025;-66
2022/02/25 06:08:25;;;;;;;19.80;3.33;;;;;;;4.79;71.47;101763.03;5048654;28;20045;-70
2022/02/25 06:10:50;;;;;;;25.50;3.40;;;;;;;4.86;71.86;101756.06;5063290;28;20063;-69
2022/02/25 06:13:16;;;;;;;15.65;2.60;;;;;;;4.86;71.33;101769.13;5046255;28;20029;-67
2022/02/25 06:15:43;;;;;;;13.35;2.95;;;;;;;4.93;71.10;101776.13;5048785;28;20029;-67
2022/02/25 06:18:08;;;;;;;17.10;3.15;;;;;;;4.96;70.83;101785.75;5049441;28;20032;-66
2022/02/25 06:20:33;;;;;;;15.70;2.83;;;;;;;5.01;71.18;101787.50;5049140;28;20472;-66
2022/02/25 06:22:59;;;;;;;23.27;2.58;;;;;;;5.03;71.59;101798.81;5047388;28;20387;-68
2022/02/25 06:25:24;;;;;;;13.52;2.92;;;;;;;5.05;71.51;101801.44;5065944;28;20039;-67
2022/02/25 06:27:50;;;;;;;16.63;2.95;;;;;;;5.06;71.58;101805.81;5046166;28;20029;-67
2022/02/25 06:30:15;;;;;;;14.65;2.33;;;;;;;5.08;71.08;101811.91;5039005;28;20044;-65
2022/02/25 06:32:41;;;;;;;27.58;3.30;;;;;;;5.06;71.16;101811.91;5028551;28;20041;-65
2022/02/25 06:35:07;;;;;;;14.57;3.00;;;;;;;5.11;71.32;101805.81;5047434;28;20037;-66
2022/02/25 06:37:32;;;;;;;11.40;2.45;;;;;;;5.15;70.89;101808.44;5038297;28;20121;-66
2022/02/25 06:39:58;;;;;;;17.10;2.88;;;;;;;5.08;70.84;101824.97;5044845;28;20155;-67
2022/02/25 06:42:23;;;;;;;10.95;2.55;;;;;;;5.13;70.71;101835.44;5034846;28;20032;-67
2022/02/25 06:44:50;;;;;;;14.70;2.20;;;;;;;5.12;70.66;101829.34;5037648;28;20033;-66
2022/02/25 06:47:15;;;;;;;20.77;3.03;;;;;;;5.16;70.36;101836.34;5039112;28;20025;-67
2022/02/25 06:49:41;;;;;;;12.98;2.05;;;;;;;5.18;70.13;101845.06;5037384;28;20026;-66
2022/02/25 06:52:06;;;;;;;13.10;2.60;;;;;;;5.22;70.45;101859.03;5041804;28;20032;-66
2022/02/25 06:54:31;;;;;;;12.10;2.22;;;;;;;5.28;70.20;101840.75;5040314;28;20697;-67
2022/02/25 06:56:57;;;;;;;12.50;2.70;;;;;;;5.30;70.48;101853.84;5033980;28;20515;-66
2022/02/25 06:59:22;;;;;;;13.32;2.47;;;;;;;5.33;70.97;101859.06;5040463;28;20086;-66
2022/02/25 07:01:47;;;;;;;25.33;2.95;;;;;;;5.33;70.76;101868.66;5035083;28;20101;-67
2022/02/25 07:04:13;;;;;;;11.57;2.60;;;;;;;5.35;70.79;101867.78;5029068;28;20029;-65
2022/02/25 07:06:38;;;;;;;9.60;2.83;;;;;;;5.38;70.71;101866.91;5045073;28;20029;-68
2022/02/25 07:09:07;;;;;;;19.35;3.50;;;;;;;5.42;71.04;101856.47;5043764;28;20219;-67
2022/02/25 07:11:33;;;;;;;19.17;2.75;;;;;;;5.42;70.99;101871.31;5036449;28;20116;-68
2022/02/25 07:13:58;;;;;;;21.33;3.70;;;;;;;5.44;70.85;101882.63;5032303;28;20025;-68
2022/02/25 07:16:23;;;;;;;21.55;3.92;;;;;;;5.52;70.91;101880.94;5048523;28;20021;-68
2022/02/25 07:18:49;;;;;;;16.02;3.22;;;;;;;5.51;70.72;101886.16;5052481;28;20467;-67
2022/02/25 07:21:14;;;;;;;28.25;4.80;;;;;;;5.59;71.24;101891.41;5053770;28;20029;-64
2022/02/25 07:23:40;;;;;;;17.52;3.63;;;;;;;5.56;71.05;101898.38;5046285;28;20536;-65
2022/02/25 07:26:07;;;;;;;16.75;2.75;;;;;;;5.62;70.79;101918.44;5058613;28;20483;-68
2022/02/25 07:28:32;;;;;;;15.20;3.03;;;;;;;5.64;70.48;101903.66;5047137;28;20505;-70
2022/02/25 07:30:57;;;;;;;22.40;2.63;;;;;;;5.60;70.12;101909.72;5047051;28;20017;-67
2022/02/25 07:33:23;;;;;;;17.67;3.65;;;;;;;5.72;70.46;101935.03;5047364;28;20025;-71
2022/02/25 07:35:48;;;;;;;17.80;2.55;;;;;;;5.74;70.50;101922.84;5050241;28;20096;-70
2022/02/25 07:38:14;;;;;;;17.77;2.80;;;;;;;5.80;70.60;101937.69;5044767;28;20449;-71
2022/02/25 07:40:39;;;;;;;15.50;2.83;;;;;;;5.74;70.42;101917.63;5047104;28;20120;-71
2022/02/25 07:43:05;;;;;;;18.67;3.95;;;;;;;5.80;69.93;101933.34;5045493;28;20031;-72
2022/02/25 07:45:30;;;;;;;14.80;2.47;;;;;;;5.79;70.05;101944.69;5047480;28;20119;-72
2022/02/25 07:47:56;;;;;;;20.02;3.60;;;;;;;5.89;70.24;101949.94;5046972;28;20086;-74
2022/02/25 07:50:22;;;;;;;18.52;2.88;;;;;;;6.02;69.08;101943.88;5044353;28;20037;-69
2022/02/25 07:52:48;;;;;;;22.58;3.15;;;;;;;6.09;68.85;101939.56;5047495;28;20021;-73
2022/02/25 07:55:14;;;;;;;20.50;3.53;;;;;;;6.07;69.47;101947.41;5047599;28;20386;-70
2022/02/25 07:57:39;;;;;;;17.95;3.42;;;;;;;6.11;68.40;101942.19;5046616;28;20021;-71
2022/02/25 08:00:07;;;;;;;13.13;3.65;;;;;;;6.17;68.95;101952.69;5047173;28;20028;-69
2022/02/25 08:02:32;;;;;;;18.08;3.50;;;;;;;6.21;69.15;101953.53;5044503;28;20398;-67
2022/02/25 08:04:58;;;;;;;23.90;3.13;;;;;;;6.30;68.50;101980.59;5050185;28;20032;-66
2022/02/25 08:07:23;;;;;;;20.73;3.25;;;;;;;6.17;68.51;101989.31;5056293;28;20016;-61
2022/02/25 08:09:49;;;;;;;20.80;3.90;;;;;;;6.19;67.81;101987.56;5055422;28;20083;-62
2022/02/25 08:12:14;;;;;;;17.23;3.95;;;;;;;6.25;68.56;101981.47;5057459;28;20044;-64
2022/02/25 08:14:40;;;;;;;22.33;3.90;;;;;;;6.17;68.39;101982.31;5055036;28;20024;-70
2022/02/25 08:17:06;;;;;;;19.35;3.70;;;;;;;6.24;68.58;101996.31;5046963;28;20082;-69
2022/02/25 08:19:31;;;;;;;28.35;5.00;;;;;;;6.09;68.63;101988.41;5046184;28;20064;-71
2022/02/25 08:21:56;;;;;;;20.73;2.88;;;;;;;6.22;67.89;102005.91;5045957;28;20025;-73
2022/02/25 08:24:22;;;;;;;17.73;2.85;;;;;;;6.19;67.96;102008.50;5059780;28;20449;-72
2022/02/25 08:26:47;;;;;;;24.67;3.35;;;;;;;6.14;68.15;102005.88;5066738;28;20467;-67
2022/02/25 08:29:12;;;;;;;20.85;2.53;;;;;;;6.11;68.80;102010.22;5065043;28;20048;-69
2022/02/25 08:31:38;;;;;;;14.35;2.50;;;;;;;6.15;68.84;102018.09;5066251;28;20052;-67
2022/02/25 08:34:03;;;;;;;14.15;2.17;;;;;;;6.11;68.72;102016.31;5066659;28;20483;-71
2022/02/25 08:36:29;;;;;;;19.23;2.80;;;;;;;6.31;68.41;102029.50;5066348;28;20489;-69
2022/02/25 08:38:54;;;;;;;17.27;3.05;;;;;;;6.32;68.30;102023.38;5066540;28;20028;-70
2022/02/25 08:41:19;;;;;;;21.95;2.75;;;;;;;6.28;68.82;102028.59;5054833;28;20112;-71
2022/02/25 08:43:47;;;;;;;15.90;3.95;;;;;;;6.28;68.26;102050.44;5052162;28;20390;-69
2022/02/25 08:46:13;;;;;;;23.90;2.90;;;;;;;6.19;68.17;102047.75;5053505;28;20154;-69
2022/02/25 08:48:38;;;;;;;20.75;2.95;;;;;;;6.07;68.11;102051.19;5050420;28;20025;-67
2022/02/25 08:51:04;;;;;;;17.33;3.40;;;;;;;6.13;68.89;102052.97;5050441;28;21095;-65
2022/02/25 08:53:29;;;;;;;18.63;3.08;;;;;;;6.12;68.30;102064.31;5056259;28;20035;-68
2022/02/25 08:55:54;;;;;;;21.08;3.33;;;;;;;6.10;69.00;102066.03;5049678;28;20027;-69
2022/02/25 08:58:20;;;;;;;17.80;2.72;;;;;;;6.12;68.55;102088.75;5052111;28;20024;-71
2022/02/25 09:00:46;;;;;;;19.90;2.83;;;;;;;6.19;68.54;102094.88;5054854;28;20479;-69
2022/02/25 09:03:11;;;;;;;13.52;3.15;;;;;;;6.24;68.31;102098.41;5054949;28;20032;-68
2022/02/25 09:05:37;;;;;;;26.77;3.45;;;;;;;6.40;68.45;102090.59;5055459;28;20446;-68
2022/02/25 09:08:02;;;;;;;14.02;2.72;;;;;;;6.41;67.93;102085.38;5052336;28;20445;-67
2022/02/25 09:10:27;;;;;;;14.43;2.60;;;;;;;6.41;67.17;102087.97;5054624;28;20514;-71
2022/02/25 09:12:53;;;;;;;26.48;3.30;;;;;;;6.41;67.67;102087.97;5045595;28;20025;-68
2022/02/25 09:15:25;;;;;;;23.77;2.53;;;;;;;6.38;67.47;102097.59;5048670;28;20145;-75
2022/02/25 09:17:53;;;;;;;20.10;3.45;;;;;;;6.33;68.56;102102.81;5047804;28;20020;-72
2022/02/25 09:20:20;;;;;;;18.80;3.47;;;;;;;6.36;68.67;102091.47;5045623;28;20036;-71
2022/02/25 09:22:46;;;;;;;27.90;3.95;;;;;;;6.42;68.93;102099.34;5042417;28;20234;-71
2022/02/25 09:25:11;;;;;;;21.63;2.92;;;;;;;6.51;68.77;102107.25;5040982;28;20537;-69
2022/02/25 09:27:37;;;;;;;17.45;3.40;;;;;;;6.62;68.54;102096.78;5044571;28;20029;-70
2022/02/25 09:30:04;;;;;;;15.13;2.60;;;;;;;6.60;68.84;102109.00;5044637;28;20051;-69
2022/02/25 09:32:30;;;;;;;23.55;3.10;;;;;;;6.59;68.98;102111.63;5042391;28;20033;-74
2022/02/25 09:34:56;;;;;;;12.38;2.67;;;;;;;6.57;68.14;102125.56;5040812;28;20036;-70
2022/02/25 09:37:22;;;;;;;17.67;2.65;;;;;;;6.56;68.68;102123.84;5030412;28;20064;-68
2022/02/25 09:39:47;;;;;;;19.55;2.95;;;;;;;6.57;68.70;102133.44;5043655;28;20037;-68
2022/02/25 09:42:13;;;;;;;19.90;2.70;;;;;;;6.62;68.87;102136.06;5043346;28;20178;-66
2022/02/25 09:44:38;;;;;;;15.65;3.17;;;;;;;6.62;68.33;102127.34;5045416;28;20414;-70
2022/02/25 09:47:04;;;;;;;16.70;2.80;;;;;;;6.69;68.81;102145.69;5045385;28;20049;-69
2022/02/25 09:49:29;;;;;;;25.00;3.40;;;;;;;6.75;69.03;102165.81;5049913;28;20479;-65
2022/02/25 09:51:56;;;;;;;22.00;3.47;;;;;;;6.75;68.65;102167.56;5065575;28;20497;-69
2022/02/25 09:54:22;;;;;;;24.10;2.80;;;;;;;6.80;67.67;102148.34;5064927;28;20024;-68
2022/02/25 09:56:48;;;;;;;13.55;2.72;;;;;;;6.94;67.38;102158.00;5065224;28;20078;-70
2022/02/25 09:59:15;;;;;;;22.33;2.75;;;;;;;6.95;67.19;102155.38;5065880;28;20070;-70
2022/02/25 10:01:41;;;;;;;18.55;2.95;;;;;;;7.02;67.47;102168.50;5065984;28;20446;-69
2022/02/25 10:04:14;;;;;;;21.40;3.22;;;;;;;7.07;67.20;102166.75;5055594;28;20463;-68
2022/02/25 10:06:40;;;;;;;26.50;5.18;;;;;;;7.08;67.19;102174.63;5055614;28;20422;-67
2022/02/25 10:09:28;;;;;;;13.95;2.72;;;;;;;7.18;67.53;102164.16;5055487;28;20131;-69
2022/02/25 10:12:03;;;;;;;15.65;3.95;;;;;;;7.25;67.46;102175.56;5057846;28;20056;-68
2022/02/25 10:14:37;;;;;;;18.77;2.72;;;;;;;7.31;67.36;102165.06;5056221;28;20475;-69
2022/02/25 10:17:25;;;;;;;19.58;2.67;;;;;;;7.25;66.98;102200.00;5056107;28;20024;-68
2022/02/25 10:20:03;;;;;;;25.90;4.00;;;;;;;7.13;66.58;102192.13;5058478;28;20027;-66
2022/02/25 10:22:31;;;;;;;19.30;2.88;;;;;;;7.29;67.69;102193.88;5057648;28;20275;-67
2022/02/25 10:25:00;;;;;;;19.45;2.88;;;;;;;7.65;66.18;102199.16;5058515;28;20091;-67
2022/02/25 10:27:27;;;;;;;19.45;3.35;;;;;;;7.87;65.29;102203.56;5057011;28;20032;-68
2022/02/25 10:29:57;;;;;;;22.42;2.85;;;;;;;7.76;66.25;102214.91;5056484;28;20024;-67
2022/02/25 10:32:28;;;;;;;21.13;2.88;;;;;;;7.55;66.59;102224.53;5056147;28;20037;-67
2022/02/25 10:34:53;;;;;;;20.05;3.45;;;;;;;7.49;66.22;102228.91;5055997;28;20025;-67
2022/02/25 10:37:18;;;;;;;12.40;2.53;;;;;;;7.26;67.56;102220.13;5056897;28;20028;-68
2022/02/25 10:39:44;;;;;;;15.70;3.20;;;;;;;7.21;66.60;102229.72;5054839;28;20040;-67
2022/02/25 10:42:19;;;;;;;24.63;3.35;;;;;;;7.19;67.24;102244.56;5054292;28;20063;-68
2022/02/25 10:44:53;;;;;;;21.80;2.75;;;;;;;7.18;67.27;102240.19;5038498;28;20033;-69
2022/02/25 10:47:24;;;;;;;23.88;3.45;;;;;;;7.12;67.38;102233.19;5045501;28;20041;-68
2022/02/25 10:50:05;;;;;;;20.63;3.53;;;;;;;7.23;67.43;102242.84;5055764;28;20040;-67
2022/02/25 10:52:36;;;;;;;20.00;2.70;;;;;;;7.20;67.56;102257.66;5045107;28;20514;-71
2022/02/25 10:55:03;;;;;;;21.35;3.17;;;;;;;7.37;67.91;102261.25;5044435;28;20029;-70
2022/02/25 10:57:29;;;;;;;23.90;4.05;;;;;;;7.46;67.25;102269.09;5045915;28;20043;-64
2022/02/25 10:59:56;;;;;;;16.30;2.70;;;;;;;7.46;66.88;102290.97;5048619;28;20025;-64
2022/02/25 11:02:36;;;;;;;23.63;4.47;;;;;;;7.53;66.15;102280.50;5056455;28;20024;-67
2022/02/25 11:05:05;;;;;;;24.80;3.65;;;;;;;7.73;66.19;102267.41;5048929;28;20117;-69
2022/02/25 11:07:30;;;;;;;19.63;2.97;;;;;;;7.84;65.24;102272.66;5056003;28;20014;-66
2022/02/25 11:09:56;;;;;;;13.70;3.10;;;;;;;8.00;65.35;102276.16;5052092;28;20041;-65
2022/02/25 11:12:21;;;;;;;14.35;3.03;;;;;;;7.98;64.44;102296.31;5050483;28;20036;-66
2022/02/25 11:14:47;;;;;;;23.88;3.58;;;;;;;8.04;65.50;102287.56;5045976;28;20033;-65
2022/02/25 11:17:12;;;;;;;21.95;3.15;;;;;;;8.16;64.96;102298.03;5046589;28;20087;-71
2022/02/25 11:19:39;;;;;;;22.27;3.13;;;;;;;8.15;64.91;102313.78;5052563;28;20025;-70
2022/02/25 11:22:06;;;;;;;25.08;2.95;;;;;;;7.79;64.43;102306.78;5055802;28;20529;-66
2022/02/25 11:24:37;;;;;;;17.77;3.22;;;;;;;7.64;66.06;102297.13;5052937;28;20035;-69
2022/02/25 11:27:03;;;;;;;21.58;3.10;;;;;;;7.69;66.67;102329.50;5050312;28;20029;-66